Time;durP1;ratioP1;P1;durP2;ratioP2;P2;SDS_P1;SDS_P2;PMS_P1;PMS_P2;Temp;Humidity;BMP_temperature;BMP_pressure;BME280_temperature;BME280_humidity;BME280_pressure;Samples;Min_cycle;Max_cycle;Signal;HPM_P1;HPM_P2
2022/01/31 00:01:33;;;;;;;2.00;0.70;;;2.70;99.90;;;;;;5159192;27;20412;-56
2022/01/31 00:04:00;;;;;;;1.98;0.70;;;2.80;99.90;;;;;;5159424;27;20490;-58
2022/01/31 00:06:28;;;;;;;2.20;0.70;;;2.90;99.90;;;;;;5159325;27;20460;-57
2022/01/31 00:08:55;;;;;;;3.75;0.63;;;2.90;99.90;;;;;;5158776;27;20513;-56
2022/01/31 00:11:22;;;;;;;3.10;0.68;;;3.00;99.90;;;;;;5159168;27;20467;-57
2022/01/31 00:13:58;;;;;;;3.33;0.70;;;2.90;99.90;;;;;;5159067;27;20428;-57
2022/01/31 00:16:31;;;;;;;3.23;0.70;;;2.90;99.90;;;;;;5159200;27;20414;-59
2022/01/31 00:18:58;;;;;;;1.40;0.60;;;2.90;99.90;;;;;;5158708;27;20519;-58
2022/01/31 00:21:25;;;;;;;4.50;0.75;;;2.90;99.90;;;;;;5159133;27;20701;-58
2022/01/31 00:23:54;;;;;;;1.85;0.70;;;2.90;99.90;;;;;;5158902;27;20779;-57
2022/01/31 00:26:21;;;;;;;4.20;0.70;;;3.00;99.90;;;;;;5159101;27;20420;-59
2022/01/31 00:28:48;;;;;;;2.40;0.65;;;3.10;99.90;;;;;;5158969;27;20925;-58
2022/01/31 00:31:15;;;;;;;2.40;0.60;;;3.00;99.90;;;;;;5158519;27;20556;-56
2022/01/31 00:33:43;;;;;;;2.60;0.70;;;3.00;99.90;;;;;;5158013;27;20420;-57
2022/01/31 00:36:10;;;;;;;2.50;0.80;;;3.00;99.90;;;;;;5158110;27;20879;-57
2022/01/31 00:38:37;;;;;;;2.67;0.80;;;3.00;99.90;;;;;;5158612;27;20823;-57
2022/01/31 00:41:08;;;;;;;2.33;0.70;;;2.80;99.90;;;;;;5159198;27;20543;-56
2022/01/31 00:43:38;;;;;;;3.70;0.80;;;2.80;99.90;;;;;;5158498;27;20425;-57
2022/01/31 00:46:11;;;;;;;3.03;0.80;;;2.80;99.90;;;;;;5158439;27;20904;-54
2022/01/31 00:48:43;;;;;;;1.50;0.70;;;2.80;99.90;;;;;;5158410;27;20436;-54
2022/01/31 00:51:11;;;;;;;3.00;0.70;;;2.90;99.90;;;;;;5158675;27;20469;-57
2022/01/31 00:53:39;;;;;;;2.42;0.65;;;3.00;99.90;;;;;;5158962;27;20773;-57
2022/01/31 00:56:08;;;;;;;4.65;0.90;;;3.10;99.90;;;;;;5157642;27;20417;-57
2022/01/31 00:58:35;;;;;;;2.38;0.80;;;3.00;99.90;;;;;;5156497;27;20490;-58
2022/01/31 01:01:02;;;;;;;1.90;0.80;;;3.00;99.90;;;;;;5156506;27;20455;-57
2022/01/31 01:03:29;;;;;;;3.00;0.90;;;3.00;99.90;;;;;;5156007;27;20421;-56
2022/01/31 01:05:56;;;;;;;3.47;0.82;;;2.90;99.90;;;;;;5155758;27;20405;-56
2022/01/31 01:08:23;;;;;;;2.20;0.80;;;2.80;99.90;;;;;;5155955;27;20467;-57
2022/01/31 01:10:50;;;;;;;7.45;0.80;;;2.70;99.90;;;;;;5156589;27;20777;-57
2022/01/31 01:13:19;;;;;;;2.55;0.80;;;2.80;99.90;;;;;;5157869;27;20469;-58
2022/01/31 01:15:46;;;;;;;3.90;0.80;;;2.80;99.90;;;;;;5157653;27;20448;-58
2022/01/31 01:18:13;;;;;;;4.35;0.90;;;2.70;99.90;;;;;;5157540;27;20835;-57
2022/01/31 01:20:40;;;;;;;5.00;0.90;;;2.70;99.90;;;;;;5157218;27;20417;-56
2022/01/31 01:23:07;;;;;;;3.60;0.80;;;2.70;99.90;;;;;;5157460;27;20505;-57
2022/01/31 01:25:34;;;;;;;4.28;0.90;;;2.80;99.90;;;;;;5157477;27;20469;-58
2022/01/31 01:28:00;;;;;;;2.20;0.80;;;2.90;99.90;;;;;;5157020;27;20428;-58
2022/01/31 01:30:29;;;;;;;5.47;0.80;;;3.00;99.90;;;;;;5157860;27;20421;-58
2022/01/31 01:33:05;;;;;;;3.37;0.93;;;3.00;99.90;;;;;;5157787;27;20435;-57
2022/01/31 01:35:33;;;;;;;4.00;0.90;;;3.00;99.90;;;;;;5157768;27;20412;-56
2022/01/31 01:38:05;;;;;;;1.40;0.80;;;3.00;99.90;;;;;;5156887;27;20408;-57
2022/01/31 01:40:33;;;;;;;4.80;0.80;;;3.10;99.90;;;;;;5158021;27;20413;-56
2022/01/31 01:43:00;;;;;;;1.83;0.80;;;3.10;99.90;;;;;;5157291;27;20900;-55
2022/01/31 01:45:27;;;;;;;2.50;0.88;;;3.00;99.90;;;;;;5157052;27;20413;-56
2022/01/31 01:47:55;;;;;;;4.10;0.90;;;3.00;99.90;;;;;;5156846;27;20863;-58
2022/01/31 01:50:22;;;;;;;5.10;0.83;;;3.00;99.90;;;;;;5157229;27;20464;-58
2022/01/31 01:52:50;;;;;;;3.20;0.80;;;3.00;99.90;;;;;;5155837;27;20700;-55
2022/01/31 01:55:17;;;;;;;3.20;0.90;;;3.00;99.90;;;;;;5156085;27;20823;-58
2022/01/31 01:57:44;;;;;;;4.80;0.90;;;3.00;99.90;;;;;;5155850;27;20846;-56
2022/01/31 02:00:16;;;;;;;3.28;0.90;;;2.90;99.90;;;;;;5156001;27;20477;-59
2022/01/31 02:02:44;;;;;;;2.33;0.90;;;3.00;99.90;;;;;;5155493;27;20436;-58
2022/01/31 02:05:13;;;;;;;3.70;0.80;;;3.00;99.90;;;;;;5155701;27;20416;-56
2022/01/31 02:07:40;;;;;;;2.85;1.20;;;3.00;99.90;;;;;;5156641;27;20460;-58
2022/01/31 02:10:08;;;;;;;4.43;1.00;;;3.00;99.90;;;;;;5157164;27;20452;-59
2022/01/31 02:12:39;;;;;;;3.20;0.90;;;3.00;99.90;;;;;;5156877;27;20444;-57
2022/01/31 02:15:07;;;;;;;3.83;0.90;;;3.00;99.90;;;;;;5156730;27;20693;-56
2022/01/31 02:17:34;;;;;;;3.20;1.47;;;3.00;99.90;;;;;;5155955;27;20429;-55
2022/01/31 02:20:01;;;;;;;3.70;1.30;;;3.00;99.90;;;;;;5156898;27;20455;-55
2022/01/31 02:22:31;;;;;;;3.25;0.90;;;3.00;99.90;;;;;;5156738;27;20452;-58
2022/01/31 02:24:58;;;;;;;4.70;0.80;;;3.00;99.90;;;;;;5156177;27;20504;-54
2022/01/31 02:27:26;;;;;;;3.08;0.80;;;3.00;99.90;;;;;;5156765;27;20512;-55
2022/01/31 02:29:53;;;;;;;4.10;0.90;;;3.00;99.90;;;;;;5156797;27;20507;-56
2022/01/31 02:32:22;;;;;;;2.80;0.88;;;3.00;99.90;;;;;;5156459;27;20922;-53
2022/01/31 02:34:49;;;;;;;2.92;0.80;;;3.00;99.90;;;;;;5156581;27;20416;-57
2022/01/31 02:37:16;;;;;;;2.65;0.80;;;3.00;99.90;;;;;;5155018;27;20507;-57
2022/01/31 02:39:44;;;;;;;3.05;0.80;;;3.00;99.90;;;;;;5155014;27;20408;-55
2022/01/31 02:42:12;;;;;;;3.72;0.93;;;3.00;99.90;;;;;;5155090;27;20511;-57
2022/01/31 02:44:40;;;;;;;3.13;1.00;;;3.00;99.90;;;;;;5154732;27;20507;-54
2022/01/31 02:47:11;;;;;;;3.90;0.77;;;3.00;99.90;;;;;;5154738;27;20420;-57
2022/01/31 02:49:47;;;;;;;2.97;0.85;;;3.10;99.90;;;;;;5154952;27;20718;-56
2022/01/31 02:52:15;;;;;;;2.10;0.90;;;3.10;99.90;;;;;;5156064;27;20722;-52
2022/01/31 02:54:43;;;;;;;5.20;0.88;;;3.20;99.90;;;;;;5156280;27;20770;-55
2022/01/31 02:57:10;;;;;;;2.42;0.90;;;3.20;99.90;;;;;;5155200;27;20713;-55
2022/01/31 02:59:38;;;;;;;3.75;0.90;;;3.10;99.90;;;;;;5155127;27;20405;-56
2022/01/31 03:02:06;;;;;;;2.25;0.75;;;3.00;99.90;;;;;;5154593;27;20719;-56
2022/01/31 03:04:33;;;;;;;3.03;0.80;;;3.00;99.90;;;;;;5154504;27;20424;-57
2022/01/31 03:07:00;;;;;;;4.27;0.80;;;2.80;99.90;;;;;;5154102;27;20910;-55
2022/01/31 03:09:27;;;;;;;2.90;0.80;;;2.90;99.90;;;;;;5154934;27;20493;-54
2022/01/31 03:11:55;;;;;;;1.83;0.80;;;2.80;99.90;;;;;;5154876;27;21004;-56
2022/01/31 03:14:24;;;;;;;1.73;0.70;;;2.90;99.90;;;;;;5155444;27;20926;-56
2022/01/31 03:16:51;;;;;;;3.13;0.90;;;2.90;99.90;;;;;;5155761;27;20413;-55
2022/01/31 03:19:20;;;;;;;2.80;1.00;;;2.90;99.90;;;;;;5155632;27;20528;-56
2022/01/31 03:21:47;;;;;;;3.72;0.73;;;2.90;99.90;;;;;;5155838;27;20871;-57
2022/01/31 03:24:14;;;;;;;3.30;0.80;;;3.00;99.90;;;;;;5156132;27;20420;-56
2022/01/31 03:26:42;;;;;;;3.35;0.90;;;3.00;99.90;;;;;;5156192;27;20791;-55
2022/01/31 03:29:10;;;;;;;2.60;0.90;;;3.00;99.90;;;;;;5155309;27;20428;-54
2022/01/31 03:31:37;;;;;;;2.50;0.80;;;3.00;99.90;;;;;;5155490;27;20488;-56
2022/01/31 03:34:04;;;;;;;2.70;0.80;;;2.90;99.90;;;;;;5155464;27;20431;-56
2022/01/31 03:36:31;;;;;;;2.05;0.90;;;3.00;99.90;;;;;;5156071;27;20450;-56
2022/01/31 03:38:58;;;;;;;4.43;0.90;;;3.00;99.90;;;;;;5155667;27;20803;-56
2022/01/31 03:41:26;;;;;;;2.00;0.80;;;3.10;99.90;;;;;;5156215;27;20504;-56
2022/01/31 03:43:53;;;;;;;2.90;0.88;;;3.10;99.90;;;;;;5156542;27;20854;-57
2022/01/31 03:46:22;;;;;;;2.40;0.80;;;3.10;99.90;;;;;;5155520;27;20858;-55
2022/01/31 03:48:49;;;;;;;2.95;0.80;;;3.10;99.90;;;;;;5156196;27;20429;-56
2022/01/31 03:51:16;;;;;;;2.20;0.80;;;2.90;99.90;;;;;;5155329;27;20417;-56
2022/01/31 03:53:43;;;;;;;2.20;0.90;;;2.90;99.90;;;;;;5155324;27;20414;-56
2022/01/31 03:56:10;;;;;;;2.30;0.90;;;2.90;99.90;;;;;;5155224;27;20507;-57
2022/01/31 03:58:37;;;;;;;1.70;0.70;;;3.00;99.90;;;;;;5155785;27;20786;-53
2022/01/31 04:01:04;;;;;;;3.35;0.80;;;3.20;99.90;;;;;;5155520;27;20448;-57
2022/01/31 04:03:34;;;;;;;3.42;0.80;;;3.30;99.90;;;;;;5155261;27;20467;-56
2022/01/31 04:06:01;;;;;;;2.60;0.80;;;3.40;99.90;;;;;;5155068;27;20431;-56
2022/01/31 04:08:28;;;;;;;1.35;0.80;;;3.40;99.90;;;;;;5155157;27;20797;-54
2022/01/31 04:10:55;;;;;;;1.67;0.80;;;3.30;99.90;;;;;;5155044;27;20689;-55
2022/01/31 04:13:22;;;;;;;1.88;0.80;;;3.30;99.90;;;;;;5155333;27;20511;-55
2022/01/31 04:15:48;;;;;;;2.00;0.80;;;3.30;99.90;;;;;;5155548;27;20420;-56
2022/01/31 04:18:16;;;;;;;2.35;0.88;;;3.20;99.90;;;;;;5154813;27;20507;-56
2022/01/31 04:20:44;;;;;;;3.28;0.80;;;3.20;99.90;;;;;;5155524;27;20484;-55
2022/01/31 04:23:13;;;;;;;3.97;0.90;;;3.20;99.90;;;;;;5155381;27;20503;-56
2022/01/31 04:25:46;;;;;;;3.60;0.80;;;3.20;99.90;;;;;;5155715;27;20526;-55
2022/01/31 04:28:22;;;;;;;2.65;0.80;;;3.20;99.90;;;;;;5155555;27;20429;-56
2022/01/31 04:30:54;;;;;;;1.30;0.70;;;3.30;99.90;;;;;;5155307;27;20780;-56
2022/01/31 04:33:21;;;;;;;2.20;0.70;;;3.30;99.90;;;;;;5156262;27;20514;-56
2022/01/31 04:35:50;;;;;;;2.10;0.70;;;3.40;99.90;;;;;;5155609;27;20519;-56
2022/01/31 04:38:17;;;;;;;2.70;0.70;;;3.50;99.90;;;;;;5141957;27;20454;-57
2022/01/31 04:40:44;;;;;;;3.70;0.80;;;3.50;99.90;;;;;;5135933;27;20414;-56
2022/01/31 04:43:11;;;;;;;3.05;0.70;;;3.60;99.90;;;;;;5138405;27;20493;-56
2022/01/31 04:45:38;;;;;;;1.73;0.60;;;3.60;99.90;;;;;;5138821;27;20489;-55
2022/01/31 04:48:06;;;;;;;1.70;0.70;;;3.60;99.90;;;;;;5138567;27;20503;-54
2022/01/31 04:50:33;;;;;;;2.03;0.60;;;3.70;99.90;;;;;;5138856;27;20510;-56
2022/01/31 04:53:01;;;;;;;1.98;0.60;;;3.70;99.90;;;;;;5138563;27;20458;-57
2022/01/31 04:55:29;;;;;;;2.97;0.70;;;3.80;99.90;;;;;;5138714;27;20414;-57
2022/01/31 04:57:56;;;;;;;2.60;0.80;;;3.90;99.90;;;;;;5138073;27;20843;-55
2022/01/31 05:00:24;;;;;;;1.80;0.70;;;3.80;99.90;;;;;;5137235;27;20493;-55
2022/01/31 05:02:51;;;;;;;2.40;0.60;;;3.90;99.90;;;;;;5137034;27;20464;-56
2022/01/31 05:05:18;;;;;;;1.73;0.70;;;3.90;99.90;;;;;;5137119;27;20514;-57
2022/01/31 05:07:45;;;;;;;2.92;0.70;;;3.90;99.90;;;;;;5137021;27;20517;-57
2022/01/31 05:10:13;;;;;;;1.67;0.60;;;3.90;99.90;;;;;;5137938;27;20476;-56
2022/01/31 05:12:41;;;;;;;3.70;0.80;;;3.90;99.90;;;;;;5137908;27;20509;-57
2022/01/31 05:15:09;;;;;;;3.10;0.75;;;3.90;99.90;;;;;;5138559;27;20502;-57
2022/01/31 05:17:36;;;;;;;2.27;0.90;;;3.90;99.90;;;;;;5138895;27;20497;-56
2022/01/31 05:20:04;;;;;;;3.88;0.80;;;3.90;99.90;;;;;;5138749;27;20788;-57
2022/01/31 05:22:31;;;;;;;3.45;0.73;;;3.90;99.90;;;;;;5138797;27;20472;-57
2022/01/31 05:24:58;;;;;;;1.33;0.70;;;3.90;99.90;;;;;;5138562;27;20512;-57
2022/01/31 05:27:27;;;;;;;2.72;0.60;;;4.00;99.90;;;;;;5137547;27;20509;-57
2022/01/31 05:29:53;;;;;;;2.40;0.70;;;4.00;99.90;;;;;;5136298;27;20432;-58
2022/01/31 05:32:20;;;;;;;1.93;0.70;;;4.00;99.90;;;;;;5138001;27;20729;-56
2022/01/31 05:34:47;;;;;;;3.83;0.70;;;4.10;99.90;;;;;;5137563;27;20468;-57
2022/01/31 05:37:14;;;;;;;2.72;0.80;;;4.10;99.90;;;;;;5137875;27;20426;-56
2022/01/31 05:39:43;;;;;;;2.70;0.70;;;4.10;99.90;;;;;;5138329;27;20411;-56
2022/01/31 05:42:10;;;;;;;1.08;0.65;;;4.20;99.90;;;;;;5138050;27;20767;-57
2022/01/31 05:44:38;;;;;;;1.70;0.60;;;4.30;99.90;;;;;;5137821;27;20445;-57
2022/01/31 05:47:05;;;;;;;2.60;0.60;;;4.40;99.90;;;;;;5136840;27;20497;-58
2022/01/31 05:49:33;;;;;;;2.00;0.80;;;4.50;99.90;;;;;;5137163;27;20513;-58
2022/01/31 05:52:04;;;;;;;2.30;0.60;;;4.60;99.90;;;;;;5135986;27;20414;-58
2022/01/31 05:54:32;;;;;;;1.88;0.60;;;4.70;99.90;;;;;;5137400;27;20419;-58
2022/01/31 05:56:59;;;;;;;1.52;0.60;;;4.70;99.90;;;;;;5137050;27;20505;-58
2022/01/31 05:59:27;;;;;;;2.28;0.60;;;4.70;99.90;;;;;;5137387;27;20497;-56
2022/01/31 06:01:57;;;;;;;2.47;0.60;;;4.70;99.90;;;;;;5137392;27;20779;-57
2022/01/31 06:04:24;;;;;;;1.60;0.60;;;4.70;99.90;;;;;;5129211;27;20509;-58
2022/01/31 06:06:51;;;;;;;3.20;0.70;;;4.70;99.90;;;;;;5135792;27;20559;-58
2022/01/31 06:09:18;;;;;;;4.13;0.60;;;4.70;99.90;;;;;;5134585;27;20518;-58
2022/01/31 06:11:48;;;;;;;2.90;0.52;;;4.70;99.90;;;;;;5134150;27;20514;-58
2022/01/31 06:14:15;;;;;;;2.58;0.60;;;4.70;99.90;;;;;;5134220;27;20746;-58
2022/01/31 06:16:42;;;;;;;2.10;0.60;;;4.70;99.90;;;;;;5133476;27;20501;-58
2022/01/31 06:19:11;;;;;;;2.30;0.60;;;4.80;99.90;;;;;;5133966;27;20537;-58
2022/01/31 06:21:38;;;;;;;1.70;0.60;;;4.90;99.90;;;;;;5132855;27;20880;-58
2022/01/31 06:24:09;;;;;;;2.60;0.63;;;4.90;99.90;;;;;;5133681;27;20426;-60
2022/01/31 06:26:37;;;;;;;4.88;0.70;;;4.90;99.90;;;;;;5133109;27;20471;-57
2022/01/31 06:29:04;;;;;;;1.80;0.50;;;4.80;99.90;;;;;;5133183;27;20480;-57
2022/01/31 06:31:32;;;;;;;2.50;0.70;;;4.60;99.90;;;;;;5134854;27;20497;-58
2022/01/31 06:33:58;;;;;;;3.90;0.63;;;4.60;99.90;;;;;;5134375;27;20414;-57
2022/01/31 06:36:27;;;;;;;1.30;0.70;;;4.60;99.90;;;;;;5133520;27;20516;-54
2022/01/31 06:38:54;;;;;;;4.53;0.70;;;4.50;99.90;;;;;;5133443;27;20909;-54
2022/01/31 06:41:23;;;;;;;2.65;0.60;;;4.50;99.90;;;;;;5134169;27;20414;-55
2022/01/31 06:43:51;;;;;;;2.88;0.70;;;4.30;99.90;;;;;;5135417;27;20430;-57
2022/01/31 06:46:18;;;;;;;2.70;0.70;;;4.30;99.90;;;;;;5134574;27;20464;-55
2022/01/31 06:48:45;;;;;;;1.63;0.60;;;4.30;99.90;;;;;;5134465;27;20517;-56
2022/01/31 06:51:12;;;;;;;2.88;0.70;;;4.30;99.90;;;;;;5134250;27;20493;-55
2022/01/31 06:53:42;;;;;;;3.50;0.70;;;4.30;99.90;;;;;;5133795;27;20422;-57
2022/01/31 06:56:09;;;;;;;3.50;0.80;;;4.20;99.90;;;;;;5133343;27;20414;-57
2022/01/31 06:58:36;;;;;;;1.90;0.80;;;4.20;99.90;;;;;;5133790;27;20827;-56
2022/01/31 07:01:03;;;;;;;1.42;0.60;;;4.40;99.90;;;;;;5134057;27;20505;-57
2022/01/31 07:03:30;;;;;;;1.20;0.70;;;4.40;99.90;;;;;;5132762;27;20432;-56
2022/01/31 07:05:57;;;;;;;3.10;0.77;;;4.50;99.90;;;;;;5133345;27;20924;-58
2022/01/31 07:08:24;;;;;;;2.05;0.75;;;4.50;99.90;;;;;;5133936;27;20730;-57
2022/01/31 07:10:52;;;;;;;2.00;0.70;;;4.40;99.90;;;;;;5123037;27;20416;-54
2022/01/31 07:13:37;;;;;;;1.50;0.70;;;4.30;99.90;;;;;;5124271;27;20433;-55
2022/01/31 07:16:05;;;;;;;1.02;0.63;;;4.40;99.90;;;;;;5111980;28;20416;-56
2022/01/31 07:18:33;;;;;;;4.50;0.80;;;4.40;99.90;;;;;;5111976;27;20766;-56
2022/01/31 07:21:01;;;;;;;1.60;0.60;;;4.40;99.90;;;;;;5131280;27;20521;-55
2022/01/31 07:23:37;;;;;;;3.03;0.70;;;4.40;99.90;;;;;;5129341;27;20422;-55
2022/01/31 07:26:06;;;;;;;1.40;0.70;;;4.40;99.90;;;;;;5111597;28;20420;-56
2022/01/31 07:28:33;;;;;;;3.85;0.60;;;4.40;99.90;;;;;;5120458;27;20517;-55
2022/01/31 07:31:00;;;;;;;1.65;0.50;;;4.40;99.90;;;;;;5132997;27;20489;-54
2022/01/31 07:33:27;;;;;;;1.58;0.60;;;4.50;99.90;;;;;;5134402;27;20479;-53
2022/01/31 07:35:55;;;;;;;1.60;0.50;;;4.50;99.90;;;;;;5134400;27;20418;-55
2022/01/31 07:38:22;;;;;;;2.38;0.60;;;4.50;99.90;;;;;;5132517;27;20436;-54
2022/01/31 07:40:51;;;;;;;1.00;0.50;;;4.60;99.90;;;;;;5132565;27;20402;-53
2022/01/31 07:43:19;;;;;;;2.70;0.60;;;4.50;99.90;;;;;;5132912;28;20431;-54
2022/01/31 07:45:46;;;;;;;1.60;0.43;;;4.50;99.90;;;;;;5132498;28;20648;-53
2022/01/31 07:48:13;;;;;;;2.30;0.60;;;4.50;99.90;;;;;;5133375;28;20426;-54
2022/01/31 07:50:40;;;;;;;1.23;0.50;;;4.60;99.90;;;;;;5133738;28;20425;-52
2022/01/31 07:53:07;;;;;;;1.40;0.40;;;4.60;99.90;;;;;;5112381;28;20510;-52
2022/01/31 07:55:34;;;;;;;2.10;0.50;;;4.60;99.90;;;;;;5124520;28;20505;-50
2022/01/31 07:58:01;;;;;;;1.30;0.50;;;4.50;99.90;;;;;;5131985;28;20466;-53
2022/01/31 08:00:30;;;;;;;0.80;0.47;;;4.50;99.90;;;;;;5132911;28;20422;-53
2022/01/31 08:02:57;;;;;;;1.05;0.40;;;4.40;99.90;;;;;;5131405;28;20437;-52
2022/01/31 08:05:24;;;;;;;0.80;0.43;;;4.50;99.90;;;;;;5132172;28;20450;-54
2022/01/31 08:07:51;;;;;;;2.30;0.50;;;4.40;99.90;;;;;;5132845;28;20721;-54
2022/01/31 08:10:18;;;;;;;1.60;0.40;;;4.40;99.90;;;;;;5131974;28;20750;-54
2022/01/31 08:12:45;;;;;;;1.00;0.30;;;4.50;99.90;;;;;;5133423;28;20795;-54
2022/01/31 08:15:21;;;;;;;1.08;0.40;;;4.70;99.90;;;;;;5133837;27;20475;-50
2022/01/31 08:17:49;;;;;;;0.90;0.40;;;4.70;99.90;;;;;;5137856;27;20444;-49
2022/01/31 08:20:16;;;;;;;0.80;0.30;;;4.90;99.90;;;;;;5137401;27;20439;-51
2022/01/31 08:22:43;;;;;;;5.30;2.60;;;4.80;99.90;;;;;;5137406;27;20414;-53
2022/01/31 08:25:14;;;;;;;2.20;0.50;;;4.80;99.90;;;;;;5136389;27;20745;-53
2022/01/31 08:27:43;;;;;;;0.80;0.30;;;5.10;99.90;;;;;;5137762;27;20911;-53
2022/01/31 08:30:15;;;;;;;0.57;0.30;;;5.20;99.90;;;;;;5138461;27;20492;-54
2022/01/31 08:32:47;;;;;;;1.10;0.30;;;5.20;99.90;;;;;;5137199;27;20458;-55
2022/01/31 08:37:59;;;;;;;0.50;0.20;;;5.10;99.90;;;;;;5136103;27;20459;-54
2022/01/31 08:40:26;;;;;;;0.40;0.20;;;5.20;99.90;;;;;;5136733;27;20430;-55
2022/01/31 08:42:54;;;;;;;0.40;0.20;;;5.40;99.90;;;;;;5135206;27;20529;-53
2022/01/31 08:45:21;;;;;;;0.73;0.20;;;5.50;99.90;;;;;;5134113;27;20685;-58
2022/01/31 08:47:48;;;;;;;0.32;0.20;;;5.50;99.90;;;;;;5135702;27;20430;-56
2022/01/31 08:50:16;;;;;;;0.52;0.20;;;5.50;99.90;;;;;;5137112;27;20530;-58
2022/01/31 08:52:43;;;;;;;0.50;0.20;;;5.40;99.90;;;;;;5134913;27;20426;-55
2022/01/31 08:55:11;;;;;;;0.47;0.20;;;5.50;99.90;;;;;;5135705;27;20497;-58
2022/01/31 08:57:39;;;;;;;0.40;0.20;;;5.60;99.90;;;;;;5134389;27;20430;-56
2022/01/31 09:00:07;;;;;;;0.40;0.20;;;5.60;99.90;;;;;;5136288;27;20490;-58
2022/01/31 09:02:40;;;;;;;0.90;0.30;;;5.60;99.90;;;;;;5136160;27;20426;-57
2022/01/31 09:05:08;;;;;;;0.45;0.20;;;5.70;99.90;;;;;;5136122;27;20470;-57
2022/01/31 09:07:36;;;;;;;0.50;0.20;;;5.80;99.90;;;;;;5131235;27;20433;-57
2022/01/31 09:10:06;;;;;;;0.40;0.30;;;5.90;99.90;;;;;;5132036;27;20465;-57
2022/01/31 09:12:35;;;;;;;0.50;0.20;;;5.90;99.90;;;;;;5131236;27;20866;-57
2022/01/31 09:15:02;;;;;;;0.60;0.20;;;5.90;99.90;;;;;;5131717;27;20497;-57
2022/01/31 09:17:29;;;;;;;0.95;0.30;;;5.90;99.90;;;;;;5134729;27;20904;-58
2022/01/31 09:19:56;;;;;;;0.50;0.20;;;6.00;99.90;;;;;;5136721;27;20803;-58
2022/01/31 09:22:23;;;;;;;0.60;0.20;;;6.00;99.90;;;;;;5134419;27;20432;-58
2022/01/31 09:24:51;;;;;;;0.50;0.30;;;6.00;99.90;;;;;;5136585;27;20507;-58
2022/01/31 09:27:18;;;;;;;0.82;0.40;;;6.10;99.90;;;;;;5134308;27;20430;-58
2022/01/31 09:29:46;;;;;;;1.45;0.50;;;6.20;99.90;;;;;;5125938;27;20424;-57
2022/01/31 09:32:13;;;;;;;0.50;0.30;;;6.30;99.90;;;;;;5130197;27;20467;-58
2022/01/31 09:34:41;;;;;;;0.40;0.20;;;6.40;99.90;;;;;;5136144;27;20552;-57
2022/01/31 09:37:08;;;;;;;0.70;0.40;;;6.40;99.90;;;;;;5135738;27;20457;-57
2022/01/31 09:39:35;;;;;;;0.73;0.30;;;6.70;99.90;;;;;;5129850;27;20416;-58
2022/01/31 09:42:07;;;;;;;0.77;0.20;;;6.80;99.90;;;;;;5121826;27;20422;-58
2022/01/31 09:44:45;;;;;;;0.70;0.30;;;6.90;99.90;;;;;;5122138;27;20750;-59
2022/01/31 09:47:21;;;;;;;0.50;0.30;;;7.00;99.90;;;;;;5115724;27;20428;-60
2022/01/31 09:49:48;;;;;;;0.80;0.50;;;6.90;99.90;;;;;;5114469;28;20484;-58
2022/01/31 09:52:16;;;;;;;1.52;0.75;;;6.70;99.90;;;;;;5115446;27;20452;-60
2022/01/31 09:54:47;;;;;;;0.50;0.30;;;6.60;99.90;;;;;;5115182;28;20455;-59
2022/01/31 09:57:16;;;;;;;1.40;0.40;;;6.70;99.90;;;;;;5120451;27;20422;-60
2022/01/31 09:59:43;;;;;;;0.68;0.30;;;6.60;99.90;;;;;;5115202;27;20510;-60
2022/01/31 10:02:11;;;;;;;0.50;0.30;;;6.60;99.90;;;;;;5124294;27;20427;-60
2022/01/31 10:04:44;;;;;;;0.50;0.30;;;6.50;99.90;;;;;;5115480;27;20431;-59
2022/01/31 10:07:13;;;;;;;0.60;0.30;;;6.50;99.90;;;;;;5113899;28;20420;-60
2022/01/31 10:09:42;;;;;;;0.80;0.40;;;6.40;99.90;;;;;;5113968;28;20435;-60
2022/01/31 10:12:20;;;;;;;0.50;0.30;;;6.70;99.90;;;;;;5114868;28;20881;-60
2022/01/31 10:17:35;;;;;;;0.50;0.30;;;6.40;99.90;;;;;;5110964;28;20554;-60
2022/01/31 10:20:06;;;;;;;0.70;0.30;;;6.50;99.90;;;;;;5112000;28;20507;-60
2022/01/31 10:22:34;;;;;;;0.50;0.30;;;6.70;99.90;;;;;;5126681;27;20521;-60
2022/01/31 10:25:03;;;;;;;0.60;0.30;;;6.60;99.90;;;;;;5132270;27;20714;-59
2022/01/31 10:27:34;;;;;;;0.60;0.30;;;6.50;99.90;;;;;;5128876;27;20509;-59
2022/01/31 10:30:11;;;;;;;0.70;0.30;;;6.70;99.90;;;;;;5133345;27;20496;-59
2022/01/31 10:32:41;;;;;;;0.70;0.30;;;6.70;99.90;;;;;;5132123;27;20481;-60
2022/01/31 10:35:10;;;;;;;0.80;0.30;;;6.70;99.90;;;;;;5133011;27;20421;-59
2022/01/31 10:37:39;;;;;;;0.50;0.30;;;6.90;99.90;;;;;;5130929;27;20513;-59
2022/01/31 10:45:54;;;;;;;0.60;0.30;;;6.90;99.90;;;;;;5134367;27;20406;-58
2022/01/31 10:54:15;;;;;;;0.90;0.40;;;6.90;99.90;;;;;;5128410;27;20412;-58
2022/01/31 10:56:44;;;;;;;1.77;0.40;;;6.70;99.90;;;;;;5122608;27;20418;-58
2022/01/31 10:59:14;;;;;;;0.65;0.30;;;6.80;99.90;;;;;;5128730;27;20525;-58
2022/01/31 11:01:44;;;;;;;0.70;0.30;;;7.00;99.90;;;;;;5131234;27;20507;-59
2022/01/31 11:04:14;;;;;;;0.47;0.30;;;7.30;99.90;;;;;;5121457;27;20944;-59
2022/01/31 11:06:42;;;;;;;0.85;0.20;;;7.30;99.90;;;;;;5125351;27;20458;-58
2022/01/31 11:09:11;;;;;;;0.50;0.30;;;7.10;48.90;;;;;;5127665;27;20773;-59
2022/01/31 11:11:40;;;;;;;0.80;0.30;;;6.90;1.00;;;;;;5115529;27;20454;-58
2022/01/31 11:14:08;;;;;;;0.50;0.30;;;6.70;44.40;;;;;;5124769;27;20424;-58
2022/01/31 11:16:36;;;;;;;0.68;0.30;;;6.70;1.00;;;;;;5114741;28;20416;-59
2022/01/31 11:19:08;;;;;;;1.63;0.32;;;6.80;99.90;;;;;;5113202;28;20519;-59
2022/01/31 11:21:39;;;;;;;0.70;0.40;;;7.10;1.00;;;;;;5110532;28;20824;-59
2022/01/31 11:24:17;;;;;;;0.90;0.40;;;7.40;1.00;;;;;;5109811;28;20428;-59
2022/01/31 11:26:51;;;;;;;1.80;0.40;;;7.40;1.00;;;;;;5111014;28;20485;-59
2022/01/31 11:29:19;;;;;;;0.60;0.30;;;7.20;1.00;;;;;;5113312;28;20477;-58
2022/01/31 11:31:47;;;;;;;2.90;0.30;;;7.20;99.90;;;;;;5112703;28;20438;-59
2022/01/31 11:34:15;;;;;;;0.90;0.30;;;6.80;1.00;;;;;;5113833;28;20559;-59
2022/01/31 11:36:44;;;;;;;2.70;0.40;;;6.80;99.90;;;;;;5114063;28;20473;-58
2022/01/31 11:39:13;;;;;;;2.35;0.80;;;6.70;99.90;;;;;;5112364;28;20471;-58
2022/01/31 11:41:45;;;;;;;5.88;1.60;;;7.00;99.90;;;;;;5111449;28;20849;-58
2022/01/31 11:44:21;;;;;;;0.73;0.30;;;7.20;1.00;;;;;;5111989;28;20420;-58
2022/01/31 11:46:49;;;;;;;0.40;0.20;;;7.20;1.00;;;;;;5111717;28;20420;-59
2022/01/31 11:49:20;;;;;;;1.00;0.30;;;7.10;1.00;;;;;;5113401;28;20431;-58
2022/01/31 11:52:06;;;;;;;1.30;0.40;;;6.90;1.00;;;;;;5116410;28;20430;-58
2022/01/31 11:54:37;;;;;;;1.80;0.40;;;6.70;99.90;;;;;;5115478;28;20432;-58
2022/01/31 11:57:14;;;;;;;1.10;0.30;;;6.70;1.00;;;;;;5116883;28;20423;-59
2022/01/31 11:59:42;;;;;;;0.70;0.30;;;6.50;99.90;;;;;;5138119;27;20513;-57
2022/01/31 12:02:13;;;;;;;0.60;0.20;;;6.70;99.90;;;;;;5136742;27;20410;-54
2022/01/31 12:04:44;;;;;;;1.20;0.30;;;6.50;1.00;;;;;;5134460;27;20437;-55
2022/01/31 12:07:42;;;;;;;0.70;0.30;;;6.50;29.50;;;;;;5138378;27;20468;-56
2022/01/31 12:10:19;;;;;;;0.70;0.30;;;6.60;99.90;;;;;;5138156;27;20452;-55
2022/01/31 12:12:52;;;;;;;0.77;0.30;;;6.70;99.90;;;;;;5139047;27;20458;-54
2022/01/31 12:15:51;;;;;;;1.30;0.30;;;6.40;1.00;;;;;;5137872;27;20775;-56
2022/01/31 12:24:08;;;;;;;0.60;0.30;;;6.40;99.90;;;;;;5137286;27;20409;-56
2022/01/31 12:26:52;;;;;;;0.90;0.50;;;6.20;1.00;;;;;;5136142;27;20577;-57
2022/01/31 12:29:22;;;;;;;3.20;0.50;;;6.30;99.90;;;;;;5132186;27;20510;-55
2022/01/31 12:31:51;;;;;;;1.67;0.40;;;6.60;1.00;;;;;;5137378;27;20512;-55
2022/01/31 12:34:39;;;;;;;1.00;0.40;;;6.70;1.00;;;;;;5137017;27;20513;-55
2022/01/31 12:37:22;;;;;;;1.00;0.30;;;6.60;23.40;;;;;;5137678;27;20813;-58
2022/01/31 12:40:02;;;;;;;2.00;0.60;;;6.60;17.00;;;;;;5135257;27;20864;-56
2022/01/31 12:45:33;;;;;;;1.33;0.40;;;6.80;99.90;;;;;;5098039;27;20395;-54
2022/01/31 12:48:22;;;;;;;1.45;0.50;;;6.60;1.00;;;;;;5131019;27;20913;-56
2022/01/31 12:51:15;;;;;;;1.33;0.50;;;6.50;99.90;;;;;;5135340;27;20429;-56
2022/01/31 12:53:49;;;;;;;3.03;0.30;;;6.20;99.90;;;;;;5089661;27;20853;-53
2022/01/31 12:56:24;;;;;;;2.60;0.30;;;6.30;1.00;;;;;;5135327;27;20918;-54
2022/01/31 12:58:54;;;;;;;0.60;0.30;;;6.20;1.00;;;;;;5132007;27;20780;-52
2022/01/31 13:01:23;;;;;;;0.70;0.30;;;6.50;99.90;;;;;;5134906;27;20513;-52
2022/01/31 13:03:52;;;;;;;1.70;0.30;;;6.40;99.90;;;;;;5138251;27;20513;-53
2022/01/31 13:06:45;;;;;;;2.55;1.38;;;6.40;1.00;;;;;;5135859;27;20791;-55
2022/01/31 13:09:19;;;;;;;2.22;0.90;;;6.30;99.90;;;;;;5135842;27;20426;-51
2022/01/31 13:11:48;;;;;;;2.80;0.50;;;6.20;1.00;;;;;;5133592;27;20458;-53
2022/01/31 13:14:18;;;;;;;0.50;0.30;;;6.10;1.00;;;;;;5131650;27;20430;-53
2022/01/31 13:16:51;;;;;;;0.70;0.30;;;6.20;1.00;;;;;;5131805;27;20422;-53
2022/01/31 13:19:21;;;;;;;1.30;0.30;;;6.10;1.00;;;;;;5131707;27;20437;-53
2022/01/31 13:21:49;;;;;;;2.17;0.38;;;6.00;1.00;;;;;;5128924;27;20818;-54
2022/01/31 13:24:18;;;;;;;0.70;0.40;;;6.10;1.00;;;;;;5133733;27;20520;-54
2022/01/31 13:26:57;;;;;;;0.80;0.30;;;6.00;1.00;;;;;;5133588;27;20833;-53
2022/01/31 13:29:35;;;;;;;0.63;0.30;;;5.70;1.00;;;;;;5133242;27;20506;-49
2022/01/31 13:32:17;;;;;;;0.60;0.20;;;5.60;1.00;;;;;;5133859;27;20433;-54
2022/01/31 13:34:45;;;;;;;0.80;0.30;;;5.60;1.00;;;;;;5133405;27;20864;-55